Burns Pinion Ridge Reserve, California Weather observations

Data are for 10 minute period ending at time listed.
 Day   Time   Solar   Ave.   Ave.  Ave.  Vector  Max.   Baro.   Total    
  of    of     Rad.   Air    Rel.  Wind   Wind   Wind  Press.  Precip.   
Year   Day            Temp.  Hum.  Speed  Dir.   Gust                    
2017   (PST)  Kw/m2    F      %     mph   deg.    mph    mb.     in.     
-------------------------------------------------------------------------
 175   18:10   0.11   95.3    10    8.8   304    17.5   873.8    0.00 
 175   18:20   0.08   94.0    11   11.3   311    18.1   873.9    0.00 
 175   18:30   0.06   93.3    11    9.6   308    17.7   874.1    0.00 
 175   18:40   0.04   92.4    11   10.3   313    17.0   874.1    0.00 
 175   18:50   0.02   91.2    12    8.4   305    15.3   874.3    0.00 
 175   19:00   0.01   90.4    12    7.6   303    14.5   874.4    0.00 
 175   19:10   0.00   89.9    12    9.2   297    14.8   874.4    0.00 
 175   19:20   0.00   89.7    12    9.1   297    15.1   874.5    0.00 
 175   19:30   0.00   89.4    13    8.8   299    16.8   874.5    0.00 
 175   19:40   0.00   88.6    13    7.4   301    11.7   874.6    0.00 
 175   19:50   0.00   88.3    14    7.4   299    12.5   874.6    0.00 
 175   20:00   0.00   88.0    15    6.9   302    12.1   874.7    0.00 
 175   20:10   0.00   87.5    15    7.7   296    13.6   874.9    0.00 
 175   20:20   0.00   88.1    15    8.1   290    12.1   874.9    0.00 
 175   20:30   0.00   87.7    15    6.7   299     9.7   875.0    0.00 
 175   20:40   0.00   86.6    16    5.4   293     9.4   875.1    0.00 
 175   20:50   0.00   86.2    17    6.1   300    11.3   875.2    0.00 
 175   21:00   0.00   86.5    16    7.7   294    11.8   875.2    0.00 
 175   21:10   0.00   86.2    16    6.4   297    10.2   875.3    0.00 
 175   21:20   0.00   85.6    16    7.9   318    11.2   875.4    0.00 
 175   21:30   0.00   85.5    16    9.6   319    15.1   875.6    0.00 
 175   21:40   0.00   86.0    16    8.5   304    15.7   875.6    0.00 
 175   21:50   0.00   86.0    15    8.9   325    14.8   875.6    0.00 
 175   22:00   0.00   85.8    15   10.7   316    17.4   875.6    0.00 
 175   22:10   0.00   85.8    15    8.2   316    12.3   875.6    0.00 
 175   22:20   0.00   85.3    15    6.7   299    11.2   875.6    0.00 
 175   22:30   0.00   85.4    15    9.3   287    15.5   875.5    0.00 
 175   22:40   0.00   85.4    15    8.8   291    14.7   875.5    0.00 
 175   22:50   0.00   84.6    15    7.2   302    12.3   875.5    0.00 
 175   23:00   0.00   83.6    16    7.1   310    11.6   875.5    0.00 
 175   23:10   0.00   83.2    16    7.9   317    11.5   875.5    0.00 
 175   23:20   0.00   82.8    16    6.6   322    10.6   875.5    0.00 
 175   23:30   0.00   82.8    15    8.0   326    11.8   875.5    0.00 
 175   23:40   0.00   83.9    15    7.1   308    11.4   875.5    0.00 
 175   23:50   0.00   82.8    15    5.4   304     8.0   875.5    0.00 
 176    0:00   0.00   82.0    16    5.5   305     9.1   875.4    0.00 
 176    0:10   0.00   81.6    16    6.2   328     9.6   875.4    0.00 
 176    0:20   0.00   80.2    17    5.3   330     8.0   875.4    0.00 
 176    0:30   0.00   78.6    18    5.5   324     7.2   875.3    0.00 
 176    0:40   0.00   78.2    19    5.6   316     7.5   875.2    0.00 
 176    0:50   0.00   78.7    18    6.0   313     7.7   875.2    0.00 
 176    1:00   0.00   79.7    18    6.1   308     8.8   875.2    0.00 
 176    1:10   0.00   79.8    18    5.4   306     7.8   875.2    0.00 
 176    1:20   0.00   80.3    17    5.7   304     8.6   875.2    0.00 
 176    1:30   0.00   80.7    17    6.3   313     9.1   875.2    0.00 
 176    1:40   0.00   81.5    16    7.5   316    11.7   875.2    0.00 
 176    1:50   0.00   82.2    16    7.4   312    12.3   875.2    0.00 
 176    2:00   0.00   82.5    15    7.7   316    12.2   875.2    0.00 
 176    2:10   0.00   82.2    15    7.3   310    12.1   875.3    0.00 
 176    2:20   0.00   82.1    15    7.1   313    11.6   875.3    0.00 
 176    2:30   0.00   80.9    16    6.2   324     8.9   875.3    0.00 
 176    2:40   0.00   80.2    17    6.4   317    11.9   875.3    0.00 
 176    2:50   0.00   81.5    16    7.6   314    13.8   875.4    0.00 
 176    3:00   0.00   80.4    16    5.4   326     7.8   875.4    0.00 
 176    3:10   0.00   78.7    18    5.7   319     9.1   875.4    0.00 
 176    3:20   0.00   78.8    18    6.3   310     9.0   875.4    0.00 
 176    3:30   0.00   79.0    18    6.0   310     8.5   875.4    0.00 
 176    3:40   0.00   78.6    18    6.1   314     8.2   875.4    0.00 
 176    3:50   0.00   78.7    18    5.7   318     8.0   875.4    0.00 
 176    4:00   0.00   79.5    17    5.8   311    10.7   875.4    0.00 
 176    4:10   0.00   79.4    17    5.6   328     8.6   875.5    0.00 
 176    4:20   0.00   78.0    18    5.9   339     7.8   875.6    0.00 
 176    4:30   0.00   78.1    18    6.6   335     9.1   875.7    0.00 
 176    4:40   0.00   78.1    18    6.4   332     9.7   875.7    0.00 
 176    4:50   0.01   78.9    17    6.8   324    10.3   875.9    0.00 
 176    5:00   0.01   80.1    16    6.4   315    10.2   876.0    0.00 
 176    5:10   0.02   80.2    16    5.9   322     9.9   876.1    0.00 
 176    5:20   0.07   80.0    17    4.2   320     5.7   876.3    0.00 
 176    5:30   0.10   80.7    17    4.6   313     6.7   876.4    0.00 
 176    5:40   0.12   82.3    16    3.7   312     5.6   876.5    0.00 
 176    5:50   0.16   84.6    15    3.6   303     5.3   876.7    0.00 
 176    6:00   0.19   86.9    14    3.0   280     5.3   876.7    0.00 
 176    6:10   0.22   89.3    14    1.3   316     2.8   876.9    0.00 
 176    6:20   0.26   90.0    14    2.6   330     3.7   877.0    0.00 
 176    6:30   0.29   91.0    14    2.3   329     3.3   877.1    0.00 
 176    6:40   0.33   93.6    13    2.0   342     2.6   877.2    0.00 
 176    6:50   0.36   94.2    12    1.2     5     2.2   877.2    0.00 
 176    7:00   0.40   95.1    11    0.7    18     3.7   877.3    0.00 
 176    7:10   0.43   93.3    11    2.8   108     4.2   877.4    0.00 
 176    7:20   0.47   94.4    11    0.8    93     2.6   877.4    0.00 
 176    7:30   0.50   95.4    11    1.1    98     2.1   877.5    0.00 
 176    7:40   0.54   96.3    11    2.1   162     6.6   877.4    0.00 
 176    7:50   0.57   95.0    11    4.3   146     7.2   877.5    0.00 
 176    8:00   0.60   94.4    11    4.0   153     7.7   877.5    0.00 
 176    8:10   0.63   95.0    11    4.5   190    11.4   877.5    0.00 
 176    8:20   0.66   95.1    12    5.5   154    12.3   877.4    0.00 
 176    8:30   0.69   95.6    12    5.5   163    10.0   877.4    0.00 
 176    8:40   0.72   95.3    12    5.5   164     9.7   877.4    0.00 
 176    8:50   0.75   95.7    12    5.5   150    10.3   877.3    0.00 
 176    9:00   0.78   95.1    12    6.4   144    10.7   877.2    0.00 
 176    9:10   0.81   95.6    12    7.0   144    13.0   877.2    0.00 
 176    9:20   0.83   96.1    12    3.8   133     7.3   877.2    0.00 
 176    9:30   0.85   97.1    12    3.5   198     7.4   877.2    0.00 
 176    9:40   0.88   97.1    12    4.2   204    10.2   877.2    0.00 
 176    9:50   0.90   96.1    12    6.1   204    12.8   877.2    0.00 
 176   10:00   0.92   96.0    12    5.7   208    14.1   877.2    0.00 
 176   10:10   0.94   95.9    12    8.0   211    14.7   877.3    0.00 
 176   10:20   0.95   95.5    12    8.7   213    14.2   877.4    0.00 
 176   10:30   0.96   96.3    12    6.8   194    15.9   877.4    0.00 
 176   10:40   0.98   96.7    12    6.7   203    15.1   877.4    0.00 
 176   10:50   0.99   97.3    11    6.5   210    13.5   877.3    0.00 
 176   11:00   1.00   97.3    10    7.5   206    13.9   877.3    0.00 
 176   11:10   1.01   97.8    10    7.1   196    16.1   877.3    0.00 
 176   11:20   1.01   98.2    10    6.1   211    14.4   877.3    0.00 
 176   11:30   1.02   99.7     9    7.8   154    16.0   877.2    0.00 
 176   11:40   1.02   99.2     9    7.3   215    15.3   877.2    0.00 
 176   11:50   1.02   99.3     8    5.8   193    13.9   877.1    0.00 
 176   12:00   1.02   99.8     8    8.7   224    18.5   877.1    0.00 
 176   12:10   1.00   99.0     8    6.8   191    14.9   877.1    0.00 
 176   12:20   1.02   99.4     8    8.8   217    17.5   877.1    0.00 
 176   12:30   1.00   99.1     7    7.5   191    15.3   877.0    0.00 
 176   12:40   1.00   99.1     7   10.2   207    19.6   877.1    0.00 
 176   12:50   0.99   98.4     8    9.3   212    19.0   877.1    0.00 
 176   13:00   0.98   99.0     8    9.1   229    17.4   877.0    0.00 
 176   13:10   0.97   99.5     8    6.9   202    17.5   877.0    0.00 
 176   13:20   0.96  100.8     7    5.6   197    13.0   876.9    0.00 
 176   13:30   0.95  100.9     7    9.3   171    18.7   876.9    0.00 
 176   13:40   0.93  100.0     7    6.2   220    13.7   877.0    0.00 
 176   13:50   0.92  101.9     7    7.2   156    17.3   876.8    0.00 
 176   14:00   0.90  101.0     7    8.3   154    20.5   876.7    0.00 
 176   14:10   0.88  101.4     6    9.5   154    19.2   876.7    0.00 
 176   14:20   0.86  102.0     5    6.0   200    12.9   876.6    0.00 
 176   14:30   0.83  101.8     5    7.8   179    15.7   876.4    0.00 
 176   14:40   0.81  102.9     5    6.7   153    16.3   876.3    0.00 
 176   14:50   0.77  102.6     5    7.2   231    15.6   876.2    0.00 
 176   15:00   0.75  102.0     6    7.5   312    18.4   876.1    0.00 
 176   15:10   0.73  103.5     6    4.5   323     9.4   876.1    0.00 
 176   15:20   0.70  101.7     5    9.2   257    19.9   876.0    0.00 
 176   15:30   0.67  101.8     6    8.2   276    15.1   876.0    0.00 
 176   15:40   0.64  100.5     6    9.9   235    18.8   876.0    0.00 
 176   15:50   0.60   99.6     8    7.9   244    17.7   876.0    0.00 
 176   16:00   0.57  100.5     7    7.7   255    15.1   876.0    0.00 
 176   16:10   0.53   99.5     8    9.1   250    15.4   876.1    0.00 
 176   16:20   0.50   98.9     8    8.8   247    18.3   876.1    0.00 
 176   16:30   0.46   98.9     7    9.7   271    18.9   876.0    0.00 
 176   16:40   0.43   98.1     7   12.4   289    22.1   875.9    0.00 
 176   16:50   0.39   97.8     7   11.6   291    19.6   875.9    0.00 
 176   17:00   0.36   97.0     8   11.6   291    21.5   875.9    0.00 
 176   17:10   0.32   97.3     9    8.2   262    15.6   875.9    0.00 
 176   17:20   0.29   96.6     9    6.7   261    13.2   875.9    0.00 
 176   17:30   0.26   96.2    10    7.6   250    15.1   875.9    0.00 
 176   17:40   0.22   95.0    11    6.3   238    12.8   875.9    0.00 
 176   17:50   0.19   93.1    12   11.0   216    17.8   875.9    0.00 
 176   18:00   0.16   92.2    12   10.0   216    18.8   875.9    0.00 

Return to Burns Pinion Ridge Reserve graphs page.


Western Regional Climate Center,wrcc@dri.edu